Time;durP1;ratioP1;P1;durP2;ratioP2;P2;SDS_P1;SDS_P2;PMS_P1;PMS_P2;Temp;Humidity;BMP_temperature;BMP_pressure;BME280_temperature;BME280_humidity;BME280_pressure;Samples;Min_cycle;Max_cycle;Signal;HPM_P1;HPM_P2
2023/07/09 00:00:43;;;;;;;11.52;4.63;;;;;;;16.39;86.32;96618.47;5095626;28;20076;-65
2023/07/09 00:03:12;;;;;;;8.98;3.72;;;;;;;16.38;86.51;96616.75;5095693;28;20044;-65
2023/07/09 00:05:39;;;;;;;7.50;4.20;;;;;;;16.40;86.15;96625.44;5095560;28;20105;-65
2023/07/09 00:08:06;;;;;;;10.80;4.03;;;;;;;16.40;86.32;96628.06;5095740;28;20546;-65
2023/07/09 00:10:34;;;;;;;9.13;4.75;;;;;;;16.41;86.09;96627.13;5095523;28;20406;-65
2023/07/09 00:13:02;;;;;;;12.82;4.20;;;;;;;16.46;85.93;96629.47;5095448;28;20093;-65
2023/07/09 00:15:31;;;;;;;10.18;3.92;;;;;;;16.49;86.04;96629.31;5095433;28;20520;-65
2023/07/09 00:18:00;;;;;;;7.88;4.13;;;;;;;16.54;86.38;96632.53;5095652;28;20055;-64
2023/07/09 00:20:27;;;;;;;10.20;4.30;;;;;;;16.55;85.82;96638.63;5095383;28;20072;-65
2023/07/09 00:22:55;;;;;;;7.68;4.40;;;;;;;16.57;86.41;96636.75;5095293;28;20048;-64
2023/07/09 00:25:24;;;;;;;10.35;4.05;;;;;;;16.61;85.86;96632.13;5095217;28;20047;-65
2023/07/09 00:27:51;;;;;;;4.07;3.63;;;;;;;16.58;85.56;96627.88;5095465;28;20044;-65
2023/07/09 00:30:21;;;;;;;7.63;3.53;;;;;;;16.60;85.29;96625.16;5095335;28;20486;-65
2023/07/09 00:32:49;;;;;;;;;;;;;;;16.57;85.46;96626.19;5095540;28;20071;-65
2023/07/09 00:35:17;;;;;;;9.18;3.92;;;;;;;16.62;85.39;96639.13;5094934;28;19920;-65
2023/07/09 00:37:45;;;;;;;9.88;3.83;;;;;;;16.63;84.89;96630.25;5095015;28;20040;-65
2023/07/09 00:40:18;;;;;;;8.80;3.70;;;;;;;16.65;85.00;96633.66;5094867;28;20044;-64
2023/07/09 00:42:48;;;;;;;6.85;4.03;;;;;;;16.63;84.36;96638.16;5094877;28;20052;-64
2023/07/09 00:45:23;;;;;;;7.88;4.30;;;;;;;16.61;84.26;96643.53;5094777;28;20490;-65
2023/07/09 00:47:55;;;;;;;10.50;3.90;;;;;;;16.59;84.31;96641.94;5094537;28;20379;-64
2023/07/09 00:50:35;;;;;;;12.02;4.38;;;;;;;16.59;84.55;96645.44;5094805;28;20044;-65
2023/07/09 00:53:09;;;;;;;10.82;3.67;;;;;;;16.60;84.12;96643.63;5094730;28;20050;-65
2023/07/09 00:55:45;;;;;;;9.15;3.70;;;;;;;16.60;84.06;96649.78;5094514;28;20074;-64
2023/07/09 00:58:16;;;;;;;9.57;3.80;;;;;;;16.57;84.03;96641.19;5094650;28;20189;-65
2023/07/09 01:00:47;;;;;;;10.65;3.95;;;;;;;16.52;83.71;96642.31;5094517;28;20106;-65
2023/07/09 01:03:29;;;;;;;10.00;4.03;;;;;;;16.45;83.95;96641.00;5094633;28;20048;-65
2023/07/09 01:05:58;;;;;;;8.00;3.83;;;;;;;16.42;83.84;96643.81;5094499;28;20044;-65
2023/07/09 01:08:30;;;;;;;9.82;4.15;;;;;;;16.40;83.92;96646.53;5094428;28;20083;-65
2023/07/09 01:10:58;;;;;;;12.88;4.43;;;;;;;16.38;83.97;96656.34;5094486;28;20478;-64
2023/07/09 01:13:26;;;;;;;9.57;4.00;;;;;;;16.27;84.03;96657.00;5094399;28;20052;-65
2023/07/09 01:15:53;;;;;;;5.10;3.70;;;;;;;16.25;83.60;96653.59;5094255;28;20055;-65
2023/07/09 01:18:24;;;;;;;7.55;3.78;;;;;;;16.26;83.46;96654.44;5094345;28;20051;-65
2023/07/09 01:20:53;;;;;;;16.63;3.60;;;;;;;16.29;84.28;96659.53;5093692;28;20051;-65
2023/07/09 01:23:22;;;;;;;7.60;3.92;;;;;;;16.29;84.74;96659.53;5094193;28;20056;-65
2023/07/09 01:25:52;;;;;;;13.55;3.60;;;;;;;16.36;83.72;96665.28;5094232;28;20044;-65
2023/07/09 01:28:20;;;;;;;10.02;3.58;;;;;;;16.42;83.93;96664.94;5093954;28;20478;-64
2023/07/09 01:30:53;;;;;;;6.10;3.92;;;;;;;16.49;83.50;96670.69;5093979;28;20040;-65
2023/07/09 01:33:22;;;;;;;7.53;4.00;;;;;;;16.49;82.96;96668.03;5093922;28;20075;-65
2023/07/09 01:35:49;;;;;;;5.93;3.70;;;;;;;16.54;82.73;96666.00;5093768;28;20490;-65
2023/07/09 01:38:16;;;;;;;10.57;3.55;;;;;;;16.63;83.33;96667.22;5093808;28;20093;-65
2023/07/09 01:40:46;;;;;;;10.43;3.75;;;;;;;16.60;82.92;96668.25;5093893;28;20048;-65
2023/07/09 01:43:13;;;;;;;10.30;3.88;;;;;;;16.63;83.95;96673.38;5093844;28;20044;-65
2023/07/09 01:45:40;;;;;;;6.85;4.18;;;;;;;16.62;83.52;96676.91;5093707;28;20059;-65
2023/07/09 01:48:15;;;;;;;7.07;4.03;;;;;;;16.70;84.28;96673.00;5093425;28;20056;-64
2023/07/09 01:50:43;;;;;;;7.68;3.45;;;;;;;16.71;84.43;96672.91;5093618;28;20044;-65
2023/07/09 01:53:12;;;;;;;9.98;3.92;;;;;;;16.76;84.39;96675.22;5093540;28;20048;-65
2023/07/09 01:55:39;;;;;;;9.30;3.15;;;;;;;16.79;84.63;96665.34;5093448;28;20513;-65
2023/07/09 01:58:08;;;;;;;5.50;3.50;;;;;;;16.81;84.27;96675.81;5093560;28;20044;-65
2023/07/09 02:00:35;;;;;;;5.20;3.70;;;;;;;16.81;84.22;96675.81;5093521;28;20070;-65
2023/07/09 02:03:02;;;;;;;9.55;3.53;;;;;;;16.84;84.39;96675.63;5093638;28;20044;-64
2023/07/09 02:05:31;;;;;;;6.55;3.90;;;;;;;16.82;84.46;96681.97;5093622;28;20071;-65
2023/07/09 02:07:58;;;;;;;9.70;3.95;;;;;;;16.83;84.30;96678.38;5093616;28;20055;-64
2023/07/09 02:10:26;;;;;;;9.02;3.53;;;;;;;16.77;83.98;96687.53;5093263;28;20044;-65
2023/07/09 02:12:53;;;;;;;4.63;3.72;;;;;;;16.78;83.94;96682.16;5093351;28;20059;-65
2023/07/09 02:15:22;;;;;;;6.82;3.72;;;;;;;16.74;83.22;96685.06;5093299;28;20082;-65
2023/07/09 02:17:49;;;;;;;13.45;3.55;;;;;;;16.74;82.84;96687.69;5093287;28;20051;-64
2023/07/09 02:20:16;;;;;;;8.55;3.72;;;;;;;16.67;82.90;96695.13;5093252;28;20105;-65
2023/07/09 02:22:43;;;;;;;11.43;3.70;;;;;;;16.55;82.78;96696.72;5093439;28;20044;-65
2023/07/09 02:25:10;;;;;;;5.22;3.30;;;;;;;16.55;83.34;96694.06;5093283;28;20040;-64
2023/07/09 02:27:38;;;;;;;6.75;4.47;;;;;;;16.57;83.40;96702.78;5093138;28;20044;-65
2023/07/09 02:30:06;;;;;;;5.97;3.47;;;;;;;16.45;82.73;96690.28;5093240;28;20402;-65
2023/07/09 02:32:35;;;;;;;8.98;3.83;;;;;;;16.41;83.57;96697.56;5093665;28;20121;-65
2023/07/09 02:35:03;;;;;;;11.52;3.95;;;;;;;16.40;83.49;96699.34;5097389;28;20105;-65
2023/07/09 02:37:30;;;;;;;5.15;3.58;;;;;;;16.39;83.32;96694.16;5097158;28;20139;-65
2023/07/09 02:39:57;;;;;;;8.77;3.95;;;;;;;16.38;82.86;96700.38;5097226;28;20545;-65
2023/07/09 02:42:24;;;;;;;8.55;4.00;;;;;;;16.36;83.07;96703.09;5097307;28;20048;-64
2023/07/09 02:44:52;;;;;;;5.43;3.60;;;;;;;16.37;82.93;96706.56;5097136;28;20055;-65
2023/07/09 02:47:19;;;;;;;8.93;3.95;;;;;;;16.34;82.62;96706.78;5097072;28;20084;-64
2023/07/09 02:49:48;;;;;;;4.57;3.45;;;;;;;16.30;83.17;96708.75;5097103;28;20478;-65
2023/07/09 02:52:15;;;;;;;6.60;4.07;;;;;;;16.33;82.86;96719.13;5097007;28;20044;-65
2023/07/09 02:54:42;;;;;;;5.50;4.00;;;;;;;16.35;82.93;96705.84;5096960;28;20101;-64
2023/07/09 02:57:09;;;;;;;8.82;4.00;;;;;;;16.32;82.64;96708.66;5096743;28;20558;-65
2023/07/09 02:59:36;;;;;;;5.45;3.97;;;;;;;16.23;82.41;96713.53;5097169;28;20516;-65
2023/07/09 03:02:04;;;;;;;9.27;3.83;;;;;;;16.22;82.68;96713.63;5096782;28;20055;-65
2023/07/09 03:04:32;;;;;;;8.70;3.47;;;;;;;16.12;82.72;96719.44;5096825;28;20047;-64
2023/07/09 03:07:00;;;;;;;7.43;3.70;;;;;;;16.03;83.20;96717.31;5096778;28;20055;-65
2023/07/09 03:09:28;;;;;;;5.13;3.65;;;;;;;16.06;83.73;96713.66;5096674;28;20054;-64
2023/07/09 03:11:55;;;;;;;9.43;4.43;;;;;;;16.10;83.84;96708.09;5096600;28;20087;-64
2023/07/09 03:14:23;;;;;;;6.75;3.95;;;;;;;16.07;83.33;96713.56;5096500;28;20478;-65
2023/07/09 03:16:50;;;;;;;4.65;3.40;;;;;;;16.09;83.20;96716.13;5096704;28;20082;-65
2023/07/09 03:19:17;;;;;;;9.18;3.63;;;;;;;16.14;83.19;96719.34;5096638;28;20077;-64
2023/07/09 03:21:44;;;;;;;11.00;3.97;;;;;;;16.16;83.09;96718.31;5096427;28;20131;-65
2023/07/09 03:24:18;;;;;;;5.75;3.60;;;;;;;16.19;82.86;96727.84;5096399;28;20040;-65
2023/07/09 03:26:46;;;;;;;8.85;3.70;;;;;;;16.20;81.98;96726.91;5096251;28;20103;-64
2023/07/09 03:29:13;;;;;;;9.80;3.58;;;;;;;16.20;81.89;96728.69;5096371;28;20044;-65
2023/07/09 03:31:40;;;;;;;8.02;3.30;;;;;;;16.24;81.81;96727.56;5096357;28;20048;-65
2023/07/09 03:34:07;;;;;;;8.35;3.70;;;;;;;16.29;81.65;96726.34;5096270;28;20127;-64
2023/07/09 03:36:37;;;;;;;4.38;3.08;;;;;;;16.36;81.51;96724.22;5096148;28;20048;-65
2023/07/09 03:39:04;;;;;;;4.28;3.30;;;;;;;16.44;80.88;96729.06;5096130;28;20055;-64
2023/07/09 03:41:32;;;;;;;5.55;3.17;;;;;;;16.71;80.53;96730.13;5096148;28;20051;-65
2023/07/09 03:43:59;;;;;;;5.03;3.05;;;;;;;17.00;78.05;96733.66;5095530;28;20052;-65
2023/07/09 03:46:26;;;;;;;5.85;3.05;;;;;;;17.32;77.05;96729.16;5095925;28;20052;-65
2023/07/09 03:48:53;;;;;;;7.07;2.83;;;;;;;17.71;75.04;96742.59;5096050;28;20048;-65
2023/07/09 03:51:20;;;;;;;4.65;2.75;;;;;;;18.11;72.56;96731.25;5095832;28;20080;-65
2023/07/09 03:53:47;;;;;;;10.60;3.00;;;;;;;18.53;70.97;96739.09;5095829;28;20048;-65
2023/07/09 03:56:15;;;;;;;5.85;2.80;;;;;;;18.98;68.98;96732.53;5095787;28;20052;-64
2023/07/09 03:58:43;;;;;;;9.88;2.92;;;;;;;19.42;66.66;96739.22;5095786;28;20048;-65
2023/07/09 04:01:10;;;;;;;4.93;2.35;;;;;;;19.82;65.22;96737.31;5095830;28;20044;-65
2023/07/09 04:03:37;;;;;;;5.85;2.58;;;;;;;20.25;63.89;96743.94;5095621;28;20044;-65
2023/07/09 04:06:04;;;;;;;10.35;2.00;;;;;;;20.71;63.02;96736.16;5095646;28;20047;-64
2023/07/09 04:08:31;;;;;;;8.20;2.50;;;;;;;21.14;61.19;96750.63;5095589;28;20453;-64
2023/07/09 04:11:01;;;;;;;4.25;2.38;;;;;;;21.48;59.94;96738.28;5095614;28;20056;-64
2023/07/09 04:13:28;;;;;;;7.25;2.85;;;;;;;21.78;59.15;96742.13;5095594;28;20452;-65
2023/07/09 04:15:57;;;;;;;5.18;3.05;;;;;;;22.11;57.76;96747.50;5095291;28;20040;-65
2023/07/09 04:18:24;;;;;;;5.47;2.30;;;;;;;22.48;56.57;96744.44;5095424;28;20056;-65
2023/07/09 04:20:52;;;;;;;7.50;2.50;;;;;;;22.84;55.75;96742.34;5095349;28;20040;-65
2023/07/09 04:23:19;;;;;;;4.57;2.38;;;;;;;23.20;55.23;96741.13;5095250;28;20082;-65
2023/07/09 04:25:46;;;;;;;4.45;2.70;;;;;;;23.52;54.35;96744.66;5095322;28;20105;-65
2023/07/09 04:28:14;;;;;;;16.00;3.20;;;;;;;23.84;53.45;96746.31;5095271;28;20102;-65
2023/07/09 04:30:48;;;;;;;6.45;3.20;;;;;;;24.14;51.98;96743.72;5095173;28;20044;-65
2023/07/09 04:33:17;;;;;;;5.65;2.67;;;;;;;24.38;51.75;96748.66;5095182;28;20044;-65
2023/07/09 04:35:45;;;;;;;2.83;2.45;;;;;;;24.57;51.26;96750.50;5095056;28;20102;-65
2023/07/09 04:38:14;;;;;;;6.00;2.38;;;;;;;24.84;51.70;96746.22;5094918;28;20048;-65
2023/07/09 04:40:41;;;;;;;2.58;2.28;;;;;;;25.02;50.53;96750.03;5094935;28;20044;-66
2023/07/09 04:43:10;;;;;;;3.72;2.47;;;;;;;25.28;51.11;96747.53;5095182;28;20478;-66
2023/07/09 04:45:37;;;;;;;4.80;2.50;;;;;;;25.55;49.71;96739.72;5094917;28;20051;-66
2023/07/09 04:48:05;;;;;;;3.65;2.67;;;;;;;25.82;49.07;96751.41;5094546;28;20054;-66
2023/07/09 04:50:33;;;;;;;7.57;2.83;;;;;;;26.09;48.59;96749.69;5094730;28;20398;-66
2023/07/09 04:53:01;;;;;;;3.88;2.75;;;;;;;26.33;48.28;96753.66;5094711;28;20127;-66
2023/07/09 04:55:28;;;;;;;3.53;2.65;;;;;;;26.49;47.93;96751.13;5093744;28;20540;-66
2023/07/09 04:57:55;;;;;;;5.75;2.90;;;;;;;26.67;47.38;96747.56;5094535;28;20143;-66
2023/07/09 05:00:23;;;;;;;3.50;2.28;;;;;;;26.97;48.11;96747.31;5094516;28;20079;-66
2023/07/09 05:02:50;;;;;;;2.83;2.40;;;;;;;27.15;47.87;96747.25;5094794;28;20051;-66
2023/07/09 05:05:17;;;;;;;4.18;2.65;;;;;;;27.40;45.54;96751.94;5094491;28;20410;-66
2023/07/09 05:07:46;;;;;;;4.90;2.47;;;;;;;27.63;45.66;96749.53;5094573;28;20044;-66
2023/07/09 05:10:14;;;;;;;6.05;2.40;;;;;;;27.83;46.77;96752.84;5094358;28;20047;-66
2023/07/09 05:12:50;;;;;;;4.15;2.53;;;;;;;27.99;44.35;96756.59;5094260;28;20097;-66
2023/07/09 05:15:18;;;;;;;4.45;2.22;;;;;;;28.17;44.08;96743.00;5094282;28;20048;-66
2023/07/09 05:17:45;;;;;;;5.22;2.70;;;;;;;28.32;44.97;96748.59;5094129;28;20549;-66
2023/07/09 05:20:12;;;;;;;5.80;2.90;;;;;;;28.43;44.17;96749.28;5094094;28;20051;-66
2023/07/09 05:22:39;;;;;;;6.50;2.88;;;;;;;28.41;44.08;96745.94;5094137;28;20565;-66
2023/07/09 05:25:09;;;;;;;4.72;2.70;;;;;;;28.43;41.73;96751.97;5094073;28;20135;-66
2023/07/09 05:27:36;;;;;;;4.57;3.13;;;;;;;28.37;39.50;96753.47;5094103;28;20052;-66
2023/07/09 05:30:04;;;;;;;4.72;2.65;;;;;;;28.53;38.40;96755.34;5094069;28;20075;-66
2023/07/09 05:32:31;;;;;;;10.32;2.90;;;;;;;28.69;37.82;96750.97;5093961;28;20044;-66
2023/07/09 05:34:59;;;;;;;4.80;2.90;;;;;;;28.80;38.43;96755.19;5093890;28;20040;-67
2023/07/09 05:37:26;;;;;;;4.40;2.90;;;;;;;28.96;38.27;96755.19;5093919;28;20409;-66
2023/07/09 05:39:53;;;;;;;6.03;2.78;;;;;;;28.97;37.18;96756.03;5093877;28;20052;-66
2023/07/09 05:42:22;;;;;;;3.03;2.53;;;;;;;29.14;38.21;96762.25;5093902;28;20068;-67
2023/07/09 05:44:49;;;;;;;7.43;2.92;;;;;;;29.12;37.30;96756.19;5093828;28;20084;-67
2023/07/09 05:47:16;;;;;;;4.18;2.88;;;;;;;29.05;36.83;96761.41;5093482;28;20077;-67
2023/07/09 05:49:43;;;;;;;6.53;2.92;;;;;;;28.93;36.37;96763.63;5093727;28;20044;-67
2023/07/09 05:52:11;;;;;;;3.78;3.08;;;;;;;29.23;37.42;96768.44;5093637;28;20078;-67
2023/07/09 05:54:38;;;;;;;3.38;2.55;;;;;;;29.31;37.32;96760.34;5093596;28;20493;-66
2023/07/09 05:57:06;;;;;;;2.80;2.53;;;;;;;29.44;38.23;96765.19;5093583;28;20059;-67
2023/07/09 05:59:35;;;;;;;4.60;3.00;;;;;;;29.66;37.55;96770.88;5093579;28;20044;-66
2023/07/09 06:02:03;;;;;;;8.60;3.35;;;;;;;29.76;36.63;96767.97;5093876;28;20085;-67
2023/07/09 06:04:31;;;;;;;5.43;2.83;;;;;;;29.95;35.32;96764.00;5093495;28;20047;-67
2023/07/09 06:06:58;;;;;;;4.22;2.78;;;;;;;30.09;35.91;96767.81;5093350;28;20482;-67
2023/07/09 06:09:26;;;;;;;5.72;3.20;;;;;;;30.29;36.19;96763.84;5093616;28;20133;-67
2023/07/09 06:11:54;;;;;;;6.00;2.50;;;;;;;30.37;35.10;96764.63;5093315;28;20117;-65
2023/07/09 06:14:21;;;;;;;4.55;3.05;;;;;;;30.36;35.26;96757.56;5093238;28;20052;-67
2023/07/09 06:16:49;;;;;;;5.85;2.58;;;;;;;30.37;35.59;96740.34;5093167;28;20048;-67
2023/07/09 06:19:16;;;;;;;5.93;2.80;;;;;;;30.27;35.07;96743.28;5093206;28;20044;-67
2023/07/09 06:21:44;;;;;;;11.73;3.25;;;;;;;30.47;35.93;96756.31;5093293;28;20098;-67
2023/07/09 06:24:11;;;;;;;4.55;2.88;;;;;;;30.80;35.75;96751.69;5093204;28;20074;-67
2023/07/09 06:26:38;;;;;;;4.30;3.35;;;;;;;30.81;35.06;96750.66;5093365;28;20135;-67
2023/07/09 06:29:05;;;;;;;5.07;2.85;;;;;;;30.82;34.44;96744.25;5093164;28;20128;-67
2023/07/09 06:31:32;;;;;;;6.00;2.85;;;;;;;31.02;35.30;96752.66;5093201;28;20135;-67
2023/07/09 06:34:01;;;;;;;6.22;3.15;;;;;;;31.17;35.12;96744.59;5093123;28;20047;-67
2023/07/09 06:36:28;;;;;;;3.40;2.88;;;;;;;31.26;32.73;96748.03;5093189;28;20044;-67
2023/07/09 06:38:55;;;;;;;5.30;3.00;;;;;;;31.35;34.38;96751.50;5093051;28;20102;-67
2023/07/09 06:41:23;;;;;;;3.80;2.85;;;;;;;31.12;33.02;96742.44;5093083;28;20055;-67
2023/07/09 06:43:50;;;;;;;4.45;2.92;;;;;;;31.03;33.87;96743.53;5093091;28;20040;-67
2023/07/09 06:46:20;;;;;;;2.95;2.65;;;;;;;30.95;33.33;96746.31;5092794;28;20109;-67
2023/07/09 06:48:47;;;;;;;6.13;3.17;;;;;;;30.92;32.79;96738.59;5093170;28;20101;-67
2023/07/09 06:51:16;;;;;;;3.33;2.97;;;;;;;31.00;34.16;96735.81;5092958;28;20101;-67
2023/07/09 06:53:47;;;;;;;5.90;2.78;;;;;;;31.31;33.27;96736.66;5092933;28;20054;-67
2023/07/09 06:56:14;;;;;;;4.38;2.63;;;;;;;31.26;32.07;96734.53;5092864;28;20123;-67
2023/07/09 06:58:42;;;;;;;3.33;3.00;;;;;;;31.01;32.81;96732.09;5092853;28;20052;-66
2023/07/09 07:01:10;;;;;;;9.32;2.97;;;;;;;31.24;33.27;96736.59;5092815;28;20051;-67
2023/07/09 07:03:38;;;;;;;3.75;2.67;;;;;;;31.02;32.05;96723.81;5092797;28;20128;-66
2023/07/09 07:06:06;;;;;;;5.15;2.70;;;;;;;30.99;31.60;96739.53;5092863;28;20083;-66
2023/07/09 07:08:35;;;;;;;4.43;2.55;;;;;;;30.68;30.92;96732.34;5092930;28;20048;-66
2023/07/09 07:11:05;;;;;;;3.92;2.40;;;;;;;30.70;34.53;96730.31;5092819;28;20055;-66
2023/07/09 07:13:34;;;;;;;3.03;2.50;;;;;;;30.56;33.09;96724.72;5092864;28;20494;-66
2023/07/09 07:16:02;;;;;;;2.78;2.45;;;;;;;30.66;31.46;96734.41;5092821;28;20076;-66
2023/07/09 07:18:30;;;;;;;6.03;2.85;;;;;;;30.81;31.49;96735.31;5092900;28;20048;-66
2023/07/09 07:20:59;;;;;;;2.65;2.13;;;;;;;30.92;31.64;96728.63;5096486;28;20382;-67
2023/07/09 07:23:26;;;;;;;3.25;2.47;;;;;;;30.91;33.87;96731.53;5096426;28;20044;-66
2023/07/09 07:25:55;;;;;;;5.68;2.53;;;;;;;30.70;32.78;96731.16;5096412;28;20048;-66
2023/07/09 07:28:23;;;;;;;4.15;2.70;;;;;;;30.49;32.18;96735.38;5096351;28;20464;-66
2023/07/09 07:31:00;;;;;;;3.47;2.72;;;;;;;30.62;32.51;96734.78;5096414;28;20047;-66
2023/07/09 07:33:27;;;;;;;6.68;2.25;;;;;;;30.67;33.42;96736.91;5096224;28;20083;-66
2023/07/09 07:35:55;;;;;;;4.30;2.60;;;;;;;30.68;31.60;96741.31;5096246;28;20051;-66
2023/07/09 07:38:22;;;;;;;3.95;2.53;;;;;;;30.75;30.88;96733.31;5096131;28;20055;-66
2023/07/09 07:40:50;;;;;;;3.38;2.58;;;;;;;30.81;31.50;96727.22;5096159;28;20077;-66
2023/07/09 07:43:20;;;;;;;3.65;2.53;;;;;;;31.00;31.37;96739.34;5096097;28;20413;-67
2023/07/09 07:45:49;;;;;;;2.92;2.42;;;;;;;30.95;30.55;96735.53;5096088;28;20494;-66
2023/07/09 07:48:16;;;;;;;3.15;2.40;;;;;;;30.97;31.62;96737.00;5095975;28;20090;-67
2023/07/09 07:50:46;;;;;;;5.60;2.78;;;;;;;31.05;30.73;96732.53;5096029;28;20099;-66
2023/07/09 07:53:13;;;;;;;4.90;2.50;;;;;;;31.02;31.51;96725.66;5096054;28;20493;-66
2023/07/09 07:55:40;;;;;;;5.22;2.50;;;;;;;31.20;30.21;96728.00;5095786;28;20058;-66
2023/07/09 07:58:10;;;;;;;5.22;2.20;;;;;;;31.51;31.38;96732.41;5095779;28;20083;-67
2023/07/09 08:00:39;;;;;;;2.95;2.58;;;;;;;31.34;30.85;96728.19;5095788;28;20044;-67
2023/07/09 08:03:07;;;;;;;5.03;2.13;;;;;;;31.38;29.88;96733.06;5095889;28;20063;-67
2023/07/09 08:05:34;;;;;;;4.82;2.60;;;;;;;31.36;29.50;96729.72;5095693;28;20044;-67
2023/07/09 08:08:01;;;;;;;5.88;2.58;;;;;;;31.19;29.06;96739.00;5095951;28;20048;-67
2023/07/09 08:10:29;;;;;;;2.40;2.20;;;;;;;31.33;29.19;96721.94;5095649;28;20055;-67
2023/07/09 08:12:57;;;;;;;3.08;2.33;;;;;;;31.50;32.40;96722.63;5095478;28;20517;-67
2023/07/09 08:15:25;;;;;;;6.75;2.25;;;;;;;31.32;30.44;96731.09;5095455;28;20460;-66
2023/07/09 08:17:55;;;;;;;5.10;2.88;;;;;;;31.17;29.52;96728.38;5095271;28;20056;-67
2023/07/09 08:20:22;;;;;;;;;;;;;;;31.09;30.18;96725.78;5095836;28;20052;-67
2023/07/09 08:22:49;;;;;;;4.90;2.42;;;;;;;30.76;29.50;96722.34;5095329;28;20254;-67
2023/07/09 08:25:17;;;;;;;4.43;2.30;;;;;;;30.79;30.97;96713.03;5094792;28;20047;-67
2023/07/09 08:27:45;;;;;;;2.38;2.08;;;;;;;30.88;30.88;96720.06;5094568;28;20048;-67
2023/07/09 08:30:12;;;;;;;2.60;2.28;;;;;;;30.48;30.83;96733.69;5094819;28;20040;-66
2023/07/09 08:32:40;;;;;;;5.90;2.60;;;;;;;30.07;30.96;96715.09;5081850;28;20081;-67
2023/07/09 08:35:11;;;;;;;2.95;2.20;;;;;;;30.22;31.82;96732.19;5092862;28;20044;-67
2023/07/09 08:37:39;;;;;;;4.80;2.13;;;;;;;30.16;33.27;96721.25;5094897;28;20085;-68
2023/07/09 08:40:10;;;;;;;4.68;2.63;;;;;;;30.19;30.93;96732.53;5094982;28;20128;-68
2023/07/09 08:42:43;;;;;;;3.55;2.13;;;;;;;30.28;30.07;96727.97;5094564;28;20048;-69
2023/07/09 08:45:25;;;;;;;4.35;2.10;;;;;;;30.43;30.64;96716.38;5092802;28;20166;-69
2023/07/09 08:48:04;;;;;;;7.75;2.22;;;;;;;30.54;30.13;96725.88;5093890;28;20062;-68
2023/07/09 08:50:38;;;;;;;3.75;2.17;;;;;;;30.35;30.48;96720.81;5094252;28;20040;-69
2023/07/09 08:53:07;;;;;;;4.03;2.25;;;;;;;30.43;28.99;96716.38;5094605;28;20129;-68
2023/07/09 08:55:40;;;;;;;3.47;2.20;;;;;;;30.55;31.11;96703.31;5094604;28;20479;-69
2023/07/09 08:58:14;;;;;;;8.20;2.33;;;;;;;30.59;31.41;96721.66;5094453;28;20052;-68
2023/07/09 09:00:49;;;;;;;9.55;2.40;;;;;;;30.47;30.32;96712.28;5094848;28;20055;-68
2023/07/09 09:03:25;;;;;;;6.20;2.58;;;;;;;30.58;30.25;96709.16;5094636;28;20044;-69
2023/07/09 09:05:53;;;;;;;2.72;2.38;;;;;;;30.57;29.21;96720.13;5092577;28;20051;-68
2023/07/09 09:08:35;;;;;;;3.20;2.45;;;;;;;30.54;28.37;96715.94;5094444;28;20479;-69
2023/07/09 09:11:14;;;;;;;4.35;2.40;;;;;;;30.44;32.17;96721.59;5094316;28;20044;-69
2023/07/09 09:13:43;;;;;;;3.87;2.13;;;;;;;30.35;30.59;96715.44;5094354;28;20122;-69
2023/07/09 09:16:23;;;;;;;8.37;2.27;;;;;;;30.37;30.39;96707.97;5094376;28;20410;-68
2023/07/09 09:18:51;;;;;;;3.95;2.13;;;;;;;30.27;30.19;96710.06;5094224;28;20143;-68
2023/07/09 09:21:26;;;;;;;5.45;2.10;;;;;;;30.27;30.71;96699.28;5093945;28;20044;-68
2023/07/09 09:23:59;;;;;;;2.60;2.00;;;;;;;30.44;31.67;96702.72;5094106;28;20130;-67
2023/07/09 09:26:31;;;;;;;2.95;2.15;;;;;;;30.35;27.86;96703.78;5094005;28;20044;-68
2023/07/09 09:28:59;;;;;;;3.28;2.08;;;;;;;30.02;31.65;96708.38;5094296;28;20044;-68
2023/07/09 09:31:28;;;;;;;3.47;2.35;;;;;;;30.17;30.25;96706.78;5093980;28;20067;-68
2023/07/09 09:33:56;;;;;;;6.80;3.07;;;;;;;30.28;30.81;96706.38;5094148;28;20052;-68
2023/07/09 09:36:27;;;;;;;7.18;2.40;;;;;;;30.37;30.11;96710.66;5080914;28;20059;-67
2023/07/09 09:38:55;;;;;;;6.32;2.33;;;;;;;30.27;30.72;96704.69;5073586;28;20135;-68
2023/07/09 09:41:25;;;;;;;4.13;2.10;;;;;;;30.18;29.37;96705.75;5073209;28;20513;-68
2023/07/09 09:43:55;;;;;;;5.80;4.00;;;;;;;30.32;31.15;96701.44;5073543;28;20045;-68
2023/07/09 09:46:25;;;;;;;5.05;2.40;;;;;;;30.43;31.92;96703.72;5073390;28;20057;-68
2023/07/09 09:48:54;;;;;;;;;;;;;;;30.25;27.73;96701.34;5073889;28;20127;-68
2023/07/09 09:51:22;;;;;;;6.38;5.72;;;;;;;30.02;29.42;96702.13;5074036;28;19924;-68
2023/07/09 09:53:54;;;;;;;3.08;2.25;;;;;;;29.95;30.35;96706.56;5073441;28;20135;-68
2023/07/09 09:56:28;;;;;;;267.50;166.60;;;;;;;29.98;29.27;96701.63;5073414;28;20048;-69
2023/07/09 09:58:57;;;;;;;64.25;48.47;;;;;;;30.07;29.44;96697.03;5073217;28;20486;-68
2023/07/09 10:01:29;;;;;;;17.55;8.27;;;;;;;29.78;29.17;96703.97;5073135;28;20049;-67
2023/07/09 10:03:58;;;;;;;10.82;9.23;;;;;;;29.80;31.00;96706.47;5073338;28;20056;-68
2023/07/09 10:06:36;;;;;;;5.80;2.50;;;;;;;29.63;32.25;96707.41;5088880;28;20062;-67
2023/07/09 10:09:14;;;;;;;181.73;145.73;;;;;;;29.62;31.65;96708.41;5093410;28;20044;-68
2023/07/09 10:11:47;;;;;;;7.28;5.22;;;;;;;29.64;31.92;96706.38;5093363;28;20097;-67
2023/07/09 10:14:29;;;;;;;41.28;37.00;;;;;;;29.63;31.02;96701.16;5093349;28;20749;-68
2023/07/09 10:17:04;;;;;;;3.40;2.97;;;;;;;29.52;28.38;96707.75;5093384;28;20130;-69
2023/07/09 10:19:39;;;;;;;3.65;3.30;;;;;;;29.47;31.40;96702.88;5093117;28;20071;-67
2023/07/09 10:22:13;;;;;;;7.53;4.65;;;;;;;29.61;31.75;96692.41;5092915;28;20044;-69
2023/07/09 10:24:54;;;;;;;5.32;2.40;;;;;;;29.83;30.98;96700.72;5093490;28;20091;-68
2023/07/09 10:27:30;;;;;;;4.43;3.25;;;;;;;29.66;30.79;96697.28;5093246;28;20517;-68
2023/07/09 10:30:14;;;;;;;3.03;2.65;;;;;;;29.75;29.04;96698.91;5093104;28;20044;-68
2023/07/09 10:32:52;;;;;;;9.18;2.72;;;;;;;29.71;30.13;96703.00;5093159;28;20050;-68
2023/07/09 10:35:27;;;;;;;3.78;2.13;;;;;;;29.52;30.25;96700.50;5090452;28;20320;-69
2023/07/09 10:38:08;;;;;;;2.70;1.98;;;;;;;29.67;31.64;96691.72;5072786;28;20143;-68
2023/07/09 10:40:42;;;;;;;3.25;2.40;;;;;;;29.56;32.33;96701.03;5072987;28;20076;-68
2023/07/09 10:43:17;;;;;;;3.88;2.22;;;;;;;29.75;32.65;96697.06;5072821;28;20437;-68
2023/07/09 10:45:48;;;;;;;6.57;2.15;;;;;;;29.74;30.24;96687.28;5072582;28;20049;-68
2023/07/09 10:48:19;;;;;;;;;;;;;;;29.71;31.40;96700.28;5072910;28;20049;-69
2023/07/09 10:50:51;;;;;;;2.67;2.10;;;;;;;29.61;30.23;96692.41;5076812;28;19966;-69
2023/07/09 10:53:30;;;;;;;3.33;2.38;;;;;;;29.51;31.50;96682.69;5077669;28;20040;-69
2023/07/09 10:56:05;;;;;;;3.75;2.30;;;;;;;29.27;31.40;96694.38;5097014;28;20087;-68
2023/07/09 10:58:40;;;;;;;5.22;2.03;;;;;;;29.16;31.37;96700.16;5076512;28;20053;-69
2023/07/09 11:01:08;;;;;;;4.75;2.33;;;;;;;28.88;30.84;96687.88;5076486;28;20048;-69
2023/07/09 11:03:44;;;;;;;33.10;3.90;;;;;;;28.79;35.94;96686.22;5076209;28;20072;-68
2023/07/09 11:06:20;;;;;;;5.40;2.50;;;;;;;28.65;33.79;96693.16;5076528;28;20053;-66
2023/07/09 11:08:52;;;;;;;9.75;3.05;;;;;;;28.53;33.32;96685.41;5076467;28;20051;-66
2023/07/09 11:11:30;;;;;;;3.17;2.22;;;;;;;28.68;34.12;96677.47;5076382;28;20457;-65
2023/07/09 11:14:04;;;;;;;5.18;2.15;;;;;;;28.69;35.28;96678.34;5076539;28;20041;-66
2023/07/09 11:16:37;;;;;;;2.35;2.05;;;;;;;28.63;33.25;96690.63;5076269;28;20110;-68
2023/07/09 11:19:06;;;;;;;4.57;2.53;;;;;;;28.74;33.65;96686.72;5076154;28;20052;-68
2023/07/09 11:21:33;;;;;;;3.03;2.25;;;;;;;28.51;32.34;96684.75;5076229;28;20122;-68
2023/07/09 11:24:02;;;;;;;10.23;2.70;;;;;;;28.53;34.10;96688.09;5076246;28;20052;-69
2023/07/09 11:26:33;;;;;;;5.00;2.45;;;;;;;28.51;34.10;96674.81;5076253;28;20139;-68
2023/07/09 11:29:16;;;;;;;2.75;2.20;;;;;;;28.24;33.30;96676.78;5076173;28;20052;-68
2023/07/09 11:31:46;;;;;;;3.88;2.42;;;;;;;27.92;35.28;96681.13;5075938;28;20052;-69
2023/07/09 11:34:19;;;;;;;3.97;2.88;;;;;;;28.11;36.68;96671.91;5076006;28;20506;-67
2023/07/09 11:36:52;;;;;;;4.05;2.33;;;;;;;28.31;36.68;96682.38;5075832;28;20049;-68
2023/07/09 11:39:21;;;;;;;2.45;2.20;;;;;;;28.53;33.43;96692.66;5075960;28;20135;-68
2023/07/09 11:41:50;;;;;;;5.18;2.15;;;;;;;28.49;33.33;96684.91;5075862;28;20050;-69
2023/07/09 11:44:21;;;;;;;3.47;2.30;;;;;;;28.43;33.20;96682.91;5075783;28;20494;-68